Time;durP1;ratioP1;P1;durP2;ratioP2;P2;SDS_P1;SDS_P2;PMS_P1;PMS_P2;Temp;Humidity;BMP_temperature;BMP_pressure;BME280_temperature;BME280_humidity;BME280_pressure;Samples;Min_cycle;Max_cycle;Signal;HPM_P1;HPM_P2
2022/06/17 00:01:54;;;;;;;0.70;0.10;;;20.80;99.90;;;;;;5018321;28;20532;-73
2022/06/17 00:04:22;;;;;;;0.70;0.20;;;20.80;99.90;;;;;;5021842;28;20448;-72
2022/06/17 00:06:55;;;;;;;0.70;0.10;;;20.80;99.90;;;;;;5013713;28;20482;-70
2022/06/17 00:09:25;;;;;;;0.60;0.10;;;20.70;99.90;;;;;;5013574;28;20440;-72
2022/06/17 00:11:52;;;;;;;0.70;0.20;;;20.70;99.90;;;;;;5013282;28;20861;-71
2022/06/17 00:14:23;;;;;;;0.60;0.20;;;20.70;99.90;;;;;;5013375;28;20535;-70
2022/06/17 00:16:51;;;;;;;0.60;0.20;;;20.70;99.90;;;;;;5031753;28;20452;-71
2022/06/17 00:19:19;;;;;;;0.60;0.10;;;20.70;99.90;;;;;;5033148;28;20447;-72
2022/06/17 00:21:50;;;;;;;0.60;0.20;;;20.70;99.90;;;;;;5033280;28;20439;-70
2022/06/17 00:24:22;;;;;;;0.63;0.17;;;20.70;99.90;;;;;;5032784;28;20572;-72
2022/06/17 00:26:51;;;;;;;0.60;0.20;;;20.70;99.90;;;;;;5016721;28;20452;-71
2022/06/17 00:29:23;;;;;;;0.70;0.20;;;20.70;99.90;;;;;;5033607;28;20493;-71
2022/06/17 00:31:52;;;;;;;0.60;0.10;;;20.70;99.90;;;;;;5033486;28;20454;-71
2022/06/17 00:34:20;;;;;;;0.67;0.20;;;20.70;99.90;;;;;;5032985;28;20534;-72
2022/06/17 00:36:52;;;;;;;0.70;0.20;;;20.70;99.90;;;;;;5014349;28;20480;-71
2022/06/17 00:39:28;;;;;;;0.67;0.20;;;20.60;99.90;;;;;;5013830;28;20542;-71
2022/06/17 00:42:04;;;;;;;0.70;0.20;;;20.60;99.90;;;;;;5013913;28;20452;-71
2022/06/17 00:44:41;;;;;;;0.60;0.10;;;20.50;99.90;;;;;;5013769;28;20535;-71
2022/06/17 00:47:20;;;;;;;0.60;0.20;;;20.50;99.90;;;;;;5031472;28;20538;-70
2022/06/17 00:50:03;;;;;;;0.60;0.20;;;20.40;99.90;;;;;;5026072;28;20443;-71
2022/06/17 00:52:38;;;;;;;0.67;0.10;;;20.30;99.90;;;;;;5028616;28;20475;-72
2022/06/17 00:55:13;;;;;;;0.60;0.10;;;;;;;;;;5023179;28;20473;-70
2022/06/17 00:57:45;;;;;;;0.60;0.20;;;;;;;;;;5032419;28;20801;-72
2022/06/17 01:00:17;;;;;;;0.60;0.10;;;20.10;99.90;;;;;;5032993;28;20455;-72
2022/06/17 01:02:50;;;;;;;0.70;0.10;;;20.10;99.90;;;;;;5023262;28;20476;-72
2022/06/17 01:05:26;;;;;;;0.70;0.20;;;20.10;99.90;;;;;;5029040;28;20463;-72
2022/06/17 01:07:58;;;;;;;0.70;0.20;;;20.10;99.90;;;;;;5012378;28;20479;-71
2022/06/17 01:10:32;;;;;;;0.60;0.10;;;20.10;99.90;;;;;;5012521;28;20444;-70
2022/06/17 01:13:05;;;;;;;0.60;0.10;;;20.10;99.90;;;;;;5023393;28;20506;-71
2022/06/17 01:15:51;;;;;;;0.70;0.20;;;20.10;99.90;;;;;;5012523;28;20472;-71
2022/06/17 01:18:21;;;;;;;0.70;0.20;;;20.20;99.90;;;;;;5010268;28;20819;-73
2022/06/17 01:20:56;;;;;;;0.60;0.10;;;20.20;99.90;;;;;;5011971;28;20467;-70
2022/06/17 01:23:27;;;;;;;0.60;0.20;;;20.20;99.90;;;;;;5010855;28;20462;-70
2022/06/17 01:26:01;;;;;;;0.60;0.20;;;20.10;99.90;;;;;;5011494;28;20961;-71
2022/06/17 01:28:31;;;;;;;0.60;0.10;;;20.10;99.90;;;;;;5028384;28;20789;-71
2022/06/17 01:31:01;;;;;;;0.67;0.20;;;20.10;99.90;;;;;;5032449;28;20849;-72
2022/06/17 01:33:35;;;;;;;0.60;0.20;;;20.10;99.90;;;;;;5031103;28;20487;-71
2022/06/17 01:36:12;;;;;;;0.60;0.13;;;19.90;99.90;;;;;;5015422;28;20478;-72
2022/06/17 01:38:43;;;;;;;0.60;0.10;;;19.80;99.90;;;;;;5020878;28;20531;-70
2022/06/17 01:41:14;;;;;;;0.60;0.20;;;19.80;99.90;;;;;;5013382;28;20440;-71
2022/06/17 01:43:50;;;;;;;0.60;0.10;;;19.80;99.90;;;;;;5013963;28;20530;-71
2022/06/17 01:46:23;;;;;;;0.60;0.20;;;19.80;99.90;;;;;;5013164;28;20460;-71
2022/06/17 01:48:56;;;;;;;0.70;0.20;;;19.80;99.90;;;;;;5013182;28;20448;-72
2022/06/17 01:51:32;;;;;;;0.70;0.10;;;19.70;99.90;;;;;;5013930;28;20456;-72
2022/06/17 01:54:04;;;;;;;0.60;0.10;;;;;;;;;;5021227;28;20846;-71
2022/06/17 01:56:34;;;;;;;0.60;0.10;;;19.70;99.90;;;;;;5022441;28;20554;-71
2022/06/17 01:59:15;;;;;;;0.60;0.20;;;19.60;99.90;;;;;;5018032;28;21022;-71
2022/06/17 02:01:51;;;;;;;0.60;0.10;;;19.60;99.90;;;;;;5025680;28;20447;-72
2022/06/17 02:04:27;;;;;;;0.60;0.20;;;19.50;99.90;;;;;;5012092;28;20576;-70
2022/06/17 02:07:01;;;;;;;0.60;0.20;;;19.50;99.90;;;;;;5012117;28;20450;-71
2022/06/17 02:09:30;;;;;;;0.60;0.10;;;19.40;99.90;;;;;;5012337;28;20448;-72
2022/06/17 02:12:00;;;;;;;0.70;0.30;;;19.40;99.90;;;;;;5027461;28;20457;-72
2022/06/17 02:14:29;;;;;;;0.60;0.10;;;19.30;99.90;;;;;;5031348;28;20483;-73
2022/06/17 02:16:58;;;;;;;0.60;0.10;;;19.30;99.90;;;;;;5031330;28;20459;-72
2022/06/17 02:19:33;;;;;;;0.60;0.10;;;19.30;99.90;;;;;;5031649;28;20834;-72
2022/06/17 02:22:07;;;;;;;0.60;0.20;;;19.30;99.90;;;;;;5015779;28;20447;-71
2022/06/17 02:24:39;;;;;;;0.60;0.10;;;;;;;;;;5011878;28;20468;-72
2022/06/17 02:27:09;;;;;;;0.60;0.20;;;;;;;;;;5019971;28;20442;-70
2022/06/17 02:29:40;;;;;;;0.60;0.20;;;19.20;99.90;;;;;;5035276;28;20823;-71
2022/06/17 02:32:10;;;;;;;0.60;0.10;;;19.30;99.90;;;;;;5018981;28;20491;-72
2022/06/17 02:34:52;;;;;;;0.60;0.10;;;19.30;99.90;;;;;;5015562;28;20855;-70
2022/06/17 02:37:20;;;;;;;0.60;0.10;;;19.30;99.90;;;;;;5015923;28;20444;-72
2022/06/17 02:39:52;;;;;;;0.60;0.10;;;19.20;99.90;;;;;;5016036;28;20448;-72
2022/06/17 02:42:26;;;;;;;0.60;0.10;;;;;;;;;;5034325;28;21166;-72
2022/06/17 02:45:02;;;;;;;0.60;0.10;;;19.20;99.90;;;;;;5036003;28;20482;-70
2022/06/17 02:47:33;;;;;;;0.60;0.10;;;19.10;99.90;;;;;;5035926;28;20439;-70
2022/06/17 02:50:01;;;;;;;0.60;0.10;;;19.10;99.90;;;;;;5037626;28;20497;-72
2022/06/17 02:52:35;;;;;;;0.60;0.10;;;19.10;99.90;;;;;;5017261;28;20454;-70
2022/06/17 02:55:08;;;;;;;0.60;0.20;;;19.10;99.90;;;;;;5016379;28;21058;-72
2022/06/17 02:57:40;;;;;;;0.60;0.20;;;19.10;99.90;;;;;;5016079;28;20456;-71
2022/06/17 03:00:15;;;;;;;0.60;0.10;;;19.10;99.90;;;;;;5021033;28;20451;-70
2022/06/17 03:02:48;;;;;;;0.60;0.10;;;19.00;99.90;;;;;;5016095;28;20454;-72
2022/06/17 03:05:23;;;;;;;0.60;0.10;;;19.00;99.90;;;;;;5015962;28;20464;-70
2022/06/17 03:07:52;;;;;;;0.60;0.10;;;18.90;99.90;;;;;;5015208;28;20915;-72
2022/06/17 03:10:32;;;;;;;0.70;0.30;;;18.90;99.90;;;;;;5023414;28;20452;-69
2022/06/17 03:13:06;;;;;;;0.60;0.10;;;18.80;99.90;;;;;;5035246;28;20450;-70
2022/06/17 03:15:38;;;;;;;0.60;0.20;;;18.60;99.90;;;;;;5034725;28;20473;-70
2022/06/17 03:18:08;;;;;;;0.60;0.10;;;18.70;99.90;;;;;;5034731;28;20466;-70
2022/06/17 03:20:38;;;;;;;0.60;0.10;;;18.70;99.90;;;;;;5034970;28;20795;-71
2022/06/17 03:23:12;;;;;;;0.60;0.20;;;18.70;99.90;;;;;;5020588;28;20970;-71
2022/06/17 03:25:47;;;;;;;0.60;0.10;;;18.70;99.90;;;;;;5014407;28;20486;-70
2022/06/17 03:28:25;;;;;;;0.60;0.10;;;18.70;99.90;;;;;;5028875;28;20586;-69
2022/06/17 03:30:58;;;;;;;0.60;0.10;;;;;;;;;;5034483;28;20443;-72
2022/06/17 03:33:34;;;;;;;0.60;0.10;;;18.70;99.90;;;;;;5028087;28;20448;-70
2022/06/17 03:36:12;;;;;;;0.60;0.10;;;18.70;99.90;;;;;;5020201;28;20486;-70
2022/06/17 03:38:43;;;;;;;0.60;0.17;;;18.70;99.90;;;;;;5022214;28;20945;-70
2022/06/17 03:41:19;;;;;;;0.60;0.10;;;18.70;99.90;;;;;;5020624;28;20452;-71
2022/06/17 03:43:52;;;;;;;0.60;0.10;;;18.70;99.90;;;;;;5031646;28;20831;-69
2022/06/17 03:46:24;;;;;;;0.60;0.10;;;18.60;99.90;;;;;;5027110;28;20519;-69
2022/06/17 03:48:57;;;;;;;0.60;0.10;;;18.70;99.90;;;;;;5024106;28;21022;-70
2022/06/17 03:51:26;;;;;;;0.60;0.10;;;18.70;99.90;;;;;;5018868;28;20467;-69
2022/06/17 03:53:55;;;;;;;0.60;0.10;;;18.70;99.90;;;;;;5020117;28;20486;-70
2022/06/17 03:56:27;;;;;;;0.60;0.20;;;18.70;99.90;;;;;;5032703;28;20482;-70
2022/06/17 03:59:00;;;;;;;0.60;0.20;;;18.70;99.90;;;;;;5022461;28;20450;-70
2022/06/17 04:01:35;;;;;;;0.60;0.10;;;18.70;99.90;;;;;;5013540;28;20472;-71
2022/06/17 04:04:07;;;;;;;0.60;0.10;;;18.70;99.90;;;;;;5017071;28;20926;-70
2022/06/17 04:06:39;;;;;;;0.60;0.10;;;18.70;99.90;;;;;;5033133;28;20471;-70
2022/06/17 04:09:14;;;;;;;0.60;0.20;;;18.70;99.90;;;;;;5027387;28;20547;-71
2022/06/17 04:11:47;;;;;;;0.60;0.10;;;18.60;99.90;;;;;;5013864;28;20813;-70
2022/06/17 04:14:20;;;;;;;0.60;0.10;;;18.70;99.90;;;;;;5013464;28;20484;-70
2022/06/17 04:16:54;;;;;;;0.60;0.10;;;18.70;99.90;;;;;;5012426;28;20480;-71
2022/06/17 04:19:24;;;;;;;0.60;0.20;;;;;;;;;;5013664;28;20955;-70
2022/06/17 04:21:53;;;;;;;0.60;0.10;;;18.80;99.90;;;;;;5013460;28;20444;-70
2022/06/17 04:24:25;;;;;;;0.60;0.10;;;18.90;99.90;;;;;;5013505;28;20451;-69
2022/06/17 04:26:56;;;;;;;0.60;0.10;;;18.90;99.90;;;;;;5027819;28;20981;-69
2022/06/17 04:29:32;;;;;;;0.60;0.20;;;18.90;99.90;;;;;;5013790;28;20848;-70
2022/06/17 04:32:03;;;;;;;0.60;0.10;;;18.90;99.90;;;;;;5024450;28;20467;-69
2022/06/17 04:34:31;;;;;;;0.60;0.10;;;18.90;99.90;;;;;;5020123;28;20486;-72
2022/06/17 04:37:03;;;;;;;0.60;0.20;;;18.90;99.90;;;;;;5017065;28;20487;-71
2022/06/17 04:39:35;;;;;;;0.60;0.20;;;18.80;99.90;;;;;;5013393;28;20449;-70
2022/06/17 04:42:10;;;;;;;0.60;0.20;;;18.80;99.90;;;;;;5015305;28;20486;-71
2022/06/17 04:44:40;;;;;;;0.60;0.10;;;18.80;99.90;;;;;;5017925;28;20481;-71
2022/06/17 04:47:11;;;;;;;0.60;0.10;;;;;;;;;;5031897;28;20450;-70
2022/06/17 04:49:43;;;;;;;0.60;0.10;;;18.60;99.90;;;;;;5032951;28;21006;-70
2022/06/17 04:52:17;;;;;;;0.60;0.20;;;;;;;;;;5033362;28;20439;-69
2022/06/17 04:54:45;;;;;;;0.60;0.13;;;18.80;99.90;;;;;;5033159;28;20491;-71
2022/06/17 04:57:15;;;;;;;0.60;0.27;;;;;;;;;;5031153;28;20447;-71
2022/06/17 04:59:45;;;;;;;0.60;0.10;;;18.90;99.90;;;;;;5022509;28;20817;-70
2022/06/17 05:02:15;;;;;;;0.60;0.20;;;18.90;99.90;;;;;;5025817;28;20462;-72
2022/06/17 05:04:45;;;;;;;1.07;0.40;;;;;;;;;;5019862;28;20555;-72
2022/06/17 05:07:15;;;;;;;0.60;0.10;;;19.00;99.90;;;;;;5017350;28;20451;-71
2022/06/17 05:09:46;;;;;;;0.70;0.30;;;19.00;99.90;;;;;;5027472;28;20447;-71
2022/06/17 05:12:25;;;;;;;0.60;0.10;;;19.00;99.90;;;;;;5029085;28;20444;-72
2022/06/17 05:14:58;;;;;;;0.60;0.10;;;19.00;99.90;;;;;;5022158;28;20488;-71
2022/06/17 05:17:26;;;;;;;2.50;2.40;;;19.00;99.90;;;;;;5017138;28;20436;-72
2022/06/17 05:19:54;;;;;;;0.60;0.10;;;18.90;99.90;;;;;;5024704;28;20443;-71
2022/06/17 05:22:30;;;;;;;0.60;0.20;;;18.90;99.90;;;;;;5033815;28;20444;-71
2022/06/17 05:25:03;;;;;;;0.60;0.10;;;19.00;99.90;;;;;;5028291;28;20464;-72
2022/06/17 05:27:32;;;;;;;0.60;0.10;;;19.10;99.90;;;;;;5018562;28;20443;-71
2022/06/17 05:30:00;;;;;;;0.60;0.10;;;19.20;99.90;;;;;;5031191;28;20644;-70
2022/06/17 05:32:27;;;;;;;0.60;0.10;;;19.30;99.90;;;;;;5035328;28;20448;-70
2022/06/17 05:34:56;;;;;;;0.60;0.20;;;19.40;99.90;;;;;;5028102;28;20491;-70
2022/06/17 05:37:24;;;;;;;0.60;0.20;;;19.50;99.90;;;;;;5031543;28;20526;-71
2022/06/17 05:39:54;;;;;;;0.60;0.10;;;19.50;99.90;;;;;;5025768;28;20452;-71
2022/06/17 05:42:22;;;;;;;0.60;0.20;;;19.70;99.90;;;;;;5015035;28;20447;-72
2022/06/17 05:44:52;;;;;;;0.60;0.10;;;;;;;;;;5032067;28;20469;-72
2022/06/17 05:47:20;;;;;;;0.60;0.20;;;19.70;99.90;;;;;;5028653;28;20451;-69
2022/06/17 05:49:48;;;;;;;0.60;0.10;;;19.90;99.90;;;;;;5020223;28;20451;-71
2022/06/17 05:52:18;;;;;;;0.60;0.10;;;;;;;;;;5013057;28;20836;-73
2022/06/17 05:54:46;;;;;;;1.30;0.30;;;20.00;99.90;;;;;;5013648;28;20495;-73
2022/06/17 05:57:15;;;;;;;0.60;0.10;;;20.00;99.90;;;;;;5023559;28;20509;-73
2022/06/17 05:59:45;;;;;;;0.70;0.20;;;20.00;99.90;;;;;;5031292;28;20590;-73
2022/06/17 06:02:15;;;;;;;0.67;0.20;;;20.00;99.90;;;;;;5022141;28;20448;-73
2022/06/17 06:04:43;;;;;;;0.60;0.10;;;20.00;99.90;;;;;;5025791;28;20471;-72
2022/06/17 06:07:14;;;;;;;0.60;0.13;;;20.00;99.90;;;;;;5022435;28;20443;-76
2022/06/17 06:09:41;;;;;;;0.60;0.10;;;20.00;99.90;;;;;;5027176;28;20446;-70
2022/06/17 06:12:11;;;;;;;0.60;0.10;;;20.00;99.90;;;;;;5017496;28;20455;-71
2022/06/17 06:14:42;;;;;;;0.70;0.10;;;20.20;99.90;;;;;;5024118;28;20468;-71
2022/06/17 06:17:12;;;;;;;0.60;0.10;;;20.20;99.90;;;;;;5024821;28;20505;-70
2022/06/17 06:19:42;;;;;;;0.60;0.10;;;20.30;99.90;;;;;;5031414;28;20446;-70
2022/06/17 06:22:10;;;;;;;0.60;0.17;;;20.40;99.90;;;;;;5015897;28;20454;-76
2022/06/17 06:24:39;;;;;;;0.60;0.10;;;;;;;;;;5033047;28;20976;-75
2022/06/17 06:27:10;;;;;;;0.67;0.10;;;20.50;99.90;;;;;;5027858;28;20455;-76
2022/06/17 06:29:38;;;;;;;0.60;0.10;;;20.60;99.90;;;;;;5025308;28;20539;-77
2022/06/17 06:32:12;;;;;;;0.60;0.20;;;20.60;99.90;;;;;;5029414;28;20451;-75
2022/06/17 06:34:47;;;;;;;0.63;0.20;;;20.70;99.90;;;;;;5020629;28;20877;-75
2022/06/17 06:40:02;;;;;;;0.70;0.10;;;20.80;99.90;;;;;;5004444;28;20452;-74
2022/06/17 06:42:34;;;;;;;0.60;0.10;;;20.90;99.90;;;;;;5018246;28;20445;-75
2022/06/17 06:45:05;;;;;;;0.60;0.20;;;20.90;99.90;;;;;;5031268;28;20455;-76
2022/06/17 06:47:32;;;;;;;0.60;0.10;;;21.00;99.90;;;;;;5024945;28;20455;-74
2022/06/17 06:50:04;;;;;;;0.60;0.20;;;21.00;99.90;;;;;;5015256;28;20499;-72
2022/06/17 06:52:35;;;;;;;0.70;0.10;;;21.10;99.90;;;;;;5026955;28;20447;-74
2022/06/17 06:55:10;;;;;;;0.70;0.10;;;21.10;99.90;;;;;;5023137;28;20474;-73
2022/06/17 06:57:44;;;;;;;0.60;0.10;;;22.30;99.90;;;;;;5018464;28;20449;-74
2022/06/17 07:00:16;;;;;;;0.60;0.20;;;21.20;99.90;;;;;;5030053;28;20439;-74
2022/06/17 07:02:47;;;;;;;0.70;0.10;;;;;;;;;;5028823;28;20451;-74
2022/06/17 07:05:17;;;;;;;0.70;0.10;;;21.40;99.90;;;;;;5021088;28;20983;-72
2022/06/17 07:07:45;;;;;;;0.70;0.10;;;21.40;99.90;;;;;;5027126;28;20455;-75
2022/06/17 07:10:17;;;;;;;0.70;0.10;;;21.50;99.90;;;;;;5015283;28;20440;-73
2022/06/17 07:12:46;;;;;;;0.70;0.10;;;21.60;99.90;;;;;;5024092;28;20470;-74
2022/06/17 07:15:15;;;;;;;0.70;0.10;;;21.70;99.90;;;;;;5024838;28;20484;-74
2022/06/17 07:17:54;;;;;;;2.13;0.40;;;21.70;99.90;;;;;;5028064;28;20443;-72
2022/06/17 07:20:24;;;;;;;1.20;0.20;;;21.70;99.90;;;;;;5027105;28;20463;-73
2022/06/17 07:22:52;;;;;;;0.70;0.20;;;21.70;99.90;;;;;;5022262;28;21249;-72
2022/06/17 07:25:20;;;;;;;0.70;0.20;;;21.80;99.90;;;;;;5022319;28;20524;-71
2022/06/17 07:27:49;;;;;;;0.70;0.20;;;21.70;99.90;;;;;;5030132;28;20526;-72
2022/06/17 07:30:19;;;;;;;0.70;0.20;;;21.70;99.90;;;;;;5017476;28;20452;-72
2022/06/17 07:32:47;;;;;;;0.70;0.20;;;;;;;;;;5029930;28;20451;-73
2022/06/17 07:35:16;;;;;;;0.73;0.30;;;21.90;99.90;;;;;;5029504;28;20522;-73
2022/06/17 07:40:32;;;;;;;0.70;0.20;;;22.00;99.90;;;;;;5018005;28;20443;-72
2022/06/17 07:43:03;;;;;;;0.70;0.20;;;22.20;99.90;;;;;;5024113;28;20865;-73
2022/06/17 07:45:32;;;;;;;0.70;0.10;;;22.20;99.90;;;;;;5029016;28;20993;-72
2022/06/17 07:48:01;;;;;;;0.70;0.10;;;22.30;99.90;;;;;;5029660;28;20447;-73
2022/06/17 07:50:37;;;;;;;0.80;0.50;;;22.30;99.90;;;;;;5024264;28;20444;-74
2022/06/17 07:53:14;;;;;;;0.60;0.20;;;22.30;99.90;;;;;;5016989;28;20531;-75
2022/06/17 07:55:46;;;;;;;0.70;0.10;;;;;;;;;;5035035;28;20872;-74
2022/06/17 07:58:14;;;;;;;0.70;0.10;;;22.40;99.90;;;;;;5016947;28;21165;-74
2022/06/17 08:00:44;;;;;;;0.70;0.10;;;22.40;99.90;;;;;;5034359;28;20448;-74
2022/06/17 08:03:13;;;;;;;0.70;0.17;;;22.40;99.90;;;;;;5024726;28;20462;-74
2022/06/17 08:05:43;;;;;;;0.70;0.33;;;22.50;99.90;;;;;;5029581;28;20554;-74
2022/06/17 08:08:21;;;;;;;0.70;0.20;;;;;;;;;;5032071;28;20530;-74
2022/06/17 08:10:50;;;;;;;0.70;0.10;;;22.60;99.90;;;;;;5022519;28;20450;-74
2022/06/17 08:13:23;;;;;;;0.70;0.20;;;22.70;99.90;;;;;;5023879;28;20557;-74
2022/06/17 08:15:55;;;;;;;0.70;0.10;;;22.70;99.90;;;;;;5018498;28;20455;-75
2022/06/17 08:18:26;;;;;;;0.70;0.20;;;22.70;99.90;;;;;;5014259;28;20519;-75
2022/06/17 08:20:56;;;;;;;0.70;0.20;;;22.70;99.90;;;;;;5023156;28;20451;-74
2022/06/17 08:23:25;;;;;;;0.70;0.10;;;22.80;99.90;;;;;;5022154;28;20941;-74
2022/06/17 08:25:54;;;;;;;0.70;0.20;;;22.90;99.90;;;;;;5023758;28;20464;-75
2022/06/17 08:28:22;;;;;;;0.70;0.17;;;23.10;99.90;;;;;;5021643;28;20443;-75
2022/06/17 08:30:52;;;;;;;0.70;0.20;;;23.10;99.90;;;;;;5013012;28;20441;-74
2022/06/17 08:33:27;;;;;;;0.70;0.20;;;23.30;99.90;;;;;;5025957;28;20440;-75
2022/06/17 08:36:12;;;;;;;0.70;0.20;;;23.30;99.90;;;;;;5016746;28;20475;-75
2022/06/17 08:38:45;;;;;;;0.70;0.20;;;23.40;99.90;;;;;;5029147;28;20463;-74
2022/06/17 08:41:25;;;;;;;0.70;0.10;;;23.40;99.90;;;;;;5029365;28;20451;-73
2022/06/17 08:44:28;;;;;;;0.70;0.10;;;23.40;99.90;;;;;;5015785;28;20926;-74
2022/06/17 08:47:16;;;;;;;0.70;0.20;;;23.40;99.90;;;;;;5031513;28;20491;-74
2022/06/17 08:50:10;;;;;;;0.70;0.20;;;23.40;99.90;;;;;;5033224;28;20428;-76
2022/06/17 08:53:07;;;;;;;0.70;0.20;;;23.40;99.90;;;;;;5019613;28;20459;-74
2022/06/17 08:55:45;;;;;;;0.70;0.10;;;23.50;99.90;;;;;;5028704;28;20511;-74
2022/06/17 08:58:20;;;;;;;0.70;0.20;;;23.50;99.90;;;;;;5036401;28;20475;-75
2022/06/17 09:00:54;;;;;;;0.70;0.10;;;23.50;99.90;;;;;;5029634;28;20455;-74
2022/06/17 09:03:37;;;;;;;0.70;0.17;;;23.40;99.90;;;;;;5024307;28;20448;-73
2022/06/17 09:06:16;;;;;;;0.70;0.20;;;23.40;99.90;;;;;;5036024;28;20495;-74
2022/06/17 09:09:12;;;;;;;0.70;0.10;;;23.50;99.90;;;;;;5024302;28;20443;-75
2022/06/17 09:11:51;;;;;;;1.80;0.40;;;23.60;99.90;;;;;;5033365;28;20440;-74
2022/06/17 09:14:32;;;;;;;0.70;0.20;;;23.70;99.90;;;;;;5017426;28;20443;-75
2022/06/17 09:17:06;;;;;;;0.70;0.10;;;23.70;99.90;;;;;;5030786;28;20479;-74
2022/06/17 09:19:40;;;;;;;0.70;0.20;;;23.80;99.90;;;;;;5024367;28;20485;-75
2022/06/17 09:22:13;;;;;;;0.70;0.10;;;23.90;99.90;;;;;;5032274;28;20443;-75
2022/06/17 09:24:44;;;;;;;0.90;0.70;;;24.00;99.90;;;;;;5019595;28;20459;-75
2022/06/17 09:27:20;;;;;;;0.70;0.20;;;24.20;99.90;;;;;;5029194;28;20459;-75
2022/06/17 09:29:57;;;;;;;0.70;0.10;;;24.20;99.90;;;;;;5026606;28;20876;-75
2022/06/17 09:32:42;;;;;;;0.70;0.10;;;24.20;99.90;;;;;;5018026;28;20829;-75
2022/06/17 09:35:17;;;;;;;0.70;0.10;;;24.30;99.90;;;;;;5032491;28;20478;-74
2022/06/17 09:37:50;;;;;;;0.70;0.10;;;24.40;99.90;;;;;;5019745;28;20487;-75
2022/06/17 09:40:22;;;;;;;0.70;0.10;;;24.50;99.90;;;;;;5016538;28;20805;-73
2022/06/17 09:42:57;;;;;;;0.70;0.10;;;24.50;99.90;;;;;;5026752;28;20474;-74
2022/06/17 09:45:36;;;;;;;0.70;0.10;;;24.70;99.90;;;;;;5023779;28;20605;-74
2022/06/17 09:48:12;;;;;;;0.70;0.10;;;24.80;99.90;;;;;;5031663;28;20905;-74
2022/06/17 09:50:47;;;;;;;0.70;0.20;;;24.90;99.90;;;;;;5017961;28;20451;-76
2022/06/17 09:53:20;;;;;;;0.70;0.20;;;24.90;99.90;;;;;;5021286;28;20436;-74
2022/06/17 09:55:53;;;;;;;0.70;0.20;;;24.90;99.90;;;;;;5022755;28;20472;-73
2022/06/17 09:58:25;;;;;;;0.70;0.10;;;25.00;99.90;;;;;;5014995;28;20483;-75
2022/06/17 10:00:56;;;;;;;0.70;0.17;;;25.00;99.90;;;;;;5023073;28;20445;-75
2022/06/17 10:03:27;;;;;;;0.70;0.20;;;25.10;99.90;;;;;;5023104;28;20952;-73
2022/06/17 10:06:04;;;;;;;0.70;0.20;;;25.20;99.90;;;;;;5014732;28;20464;-75
2022/06/17 10:08:42;;;;;;;0.70;0.17;;;25.10;99.90;;;;;;5023559;28;20475;-75
2022/06/17 10:11:18;;;;;;;0.70;0.20;;;24.90;99.90;;;;;;5022164;28;20508;-74
2022/06/17 10:13:57;;;;;;;0.70;0.10;;;24.90;99.90;;;;;;5016307;28;20445;-74
2022/06/17 10:19:29;;;;;;;0.70;0.17;;;24.90;99.90;;;;;;5023117;28;20435;-73
2022/06/17 10:22:20;;;;;;;0.70;0.20;;;25.00;99.90;;;;;;5017351;28;20882;-73
2022/06/17 10:24:59;;;;;;;0.70;0.10;;;25.10;99.90;;;;;;5026373;28;21005;-74
2022/06/17 10:27:43;;;;;;;0.70;0.10;;;25.10;99.90;;;;;;5018917;28;20809;-71
2022/06/17 10:30:26;;;;;;;0.70;0.10;;;25.30;99.90;;;;;;5023028;28;20447;-73
2022/06/17 10:32:55;;;;;;;0.70;0.17;;;25.50;99.90;;;;;;5015763;28;20455;-70
2022/06/17 10:35:27;;;;;;;0.70;0.10;;;25.60;99.90;;;;;;5023636;28;20523;-73
2022/06/17 10:37:57;;;;;;;0.70;0.10;;;25.70;99.90;;;;;;5016328;28;20570;-74
2022/06/17 10:40:29;;;;;;;0.70;0.20;;;25.70;99.90;;;;;;5015942;28;20455;-73
2022/06/17 10:43:01;;;;;;;0.70;0.20;;;25.90;99.90;;;;;;5022515;28;20559;-73
2022/06/17 10:45:31;;;;;;;0.70;0.17;;;;;;;;;;5021736;28;20479;-72
2022/06/17 10:48:05;;;;;;;0.70;0.20;;;26.10;99.90;;;;;;5026094;28;20466;-72
2022/06/17 10:50:41;;;;;;;0.70;0.10;;;26.10;99.90;;;;;;5020916;28;20453;-72
2022/06/17 10:53:21;;;;;;;0.70;0.20;;;26.20;99.90;;;;;;5026907;28;20459;-71
2022/06/17 10:55:59;;;;;;;0.70;0.10;;;26.30;99.90;;;;;;5032908;28;20510;-72
2022/06/17 10:58:33;;;;;;;0.70;0.10;;;26.40;99.90;;;;;;5027272;28;20471;-72
2022/06/17 11:01:07;;;;;;;0.70;0.13;;;;;;;;;;5025490;28;20809;-71
2022/06/17 11:03:48;;;;;;;0.80;0.20;;;26.50;99.90;;;;;;5015375;28;20460;-70
2022/06/17 11:06:26;;;;;;;0.70;0.20;;;;;;;;;;5017062;28;20509;-71
2022/06/17 11:09:03;;;;;;;0.70;0.10;;;26.50;99.90;;;;;;5027382;28;20830;-70
2022/06/17 11:12:05;;;;;;;0.70;0.20;;;26.50;99.90;;;;;;5026914;28;20481;-73
2022/06/17 11:14:45;;;;;;;0.70;0.30;;;;;;;;;;5019959;28;20831;-72
2022/06/17 11:17:27;;;;;;;0.70;0.10;;;26.40;99.90;;;;;;5024179;28;20452;-71
2022/06/17 11:20:01;;;;;;;0.70;0.20;;;26.50;99.90;;;;;;5030975;28;20983;-70
2022/06/17 11:22:55;;;;;;;0.70;0.20;;;26.60;99.90;;;;;;5021231;28;20789;-71
2022/06/17 11:25:34;;;;;;;0.70;0.10;;;26.60;99.90;;;;;;5023409;28;20994;-73
2022/06/17 11:28:19;;;;;;;0.70;0.10;;;26.70;99.90;;;;;;5019480;28;20448;-71
2022/06/17 11:30:52;;;;;;;0.70;0.20;;;26.80;99.90;;;;;;5025819;28;20443;-72
2022/06/17 11:33:27;;;;;;;0.70;0.10;;;26.90;99.90;;;;;;5020969;28;20443;-72
2022/06/17 11:36:01;;;;;;;0.70;0.20;;;27.10;99.90;;;;;;5029592;28;20459;-73
2022/06/17 11:38:32;;;;;;;0.70;0.10;;;27.20;99.90;;;;;;5029432;28;20560;-72
2022/06/17 11:41:24;;;;;;;0.70;0.20;;;27.20;99.90;;;;;;5030021;28;20443;-71
2022/06/17 11:43:53;;;;;;;0.70;0.20;;;27.30;99.90;;;;;;5029840;28;20922;-71
2022/06/17 11:46:24;;;;;;;0.90;0.67;;;27.30;99.90;;;;;;5029319;28;20464;-71
2022/06/17 11:48:56;;;;;;;0.70;0.10;;;27.30;99.90;;;;;;5025435;28;20444;-72
2022/06/17 11:51:34;;;;;;;0.70;0.10;;;27.40;99.90;;;;;;5025610;28;20439;-72
2022/06/17 11:54:06;;;;;;;0.70;0.10;;;27.30;99.90;;;;;;5016792;28;20447;-77
2022/06/17 11:56:37;;;;;;;0.70;0.10;;;27.40;99.90;;;;;;5031880;28;20571;-75
2022/06/17 11:59:13;;;;;;;0.70;0.10;;;27.50;99.90;;;;;;5030878;28;20478;-76
2022/06/17 12:01:42;;;;;;;0.70;0.13;;;27.60;99.90;;;;;;5014175;28;20471;-74
2022/06/17 12:04:35;;;;;;;0.70;0.10;;;27.60;99.90;;;;;;5022331;28;20452;-75
2022/06/17 12:07:03;;;;;;;0.70;0.20;;;27.70;99.90;;;;;;5024085;28;20438;-74
2022/06/17 12:09:37;;;;;;;0.70;0.20;;;27.70;99.90;;;;;;5020526;28;20958;-75
2022/06/17 12:12:10;;;;;;;0.70;0.10;;;27.80;99.90;;;;;;5031511;28;20534;-75
2022/06/17 12:14:47;;;;;;;0.70;0.10;;;27.90;99.90;;;;;;5027250;28;20463;-74
2022/06/17 12:17:18;;;;;;;0.70;0.20;;;27.90;99.90;;;;;;5023852;28;20482;-75
2022/06/17 12:19:57;;;;;;;0.70;0.20;;;28.10;99.90;;;;;;5020502;28;20475;-74
2022/06/17 12:22:32;;;;;;;0.70;0.10;;;28.10;99.90;;;;;;5018185;28;20448;-75
2022/06/17 12:25:07;;;;;;;0.70;0.10;;;28.20;99.90;;;;;;5025153;28;20460;-74
2022/06/17 12:27:39;;;;;;;0.70;0.20;;;28.20;99.90;;;;;;5028054;28;20441;-74
2022/06/17 12:30:39;;;;;;;0.70;0.20;;;28.20;99.90;;;;;;5019410;28;20447;-76
2022/06/17 12:33:15;;;;;;;0.70;0.10;;;28.20;99.90;;;;;;5017563;28;20448;-74
2022/06/17 12:35:48;;;;;;;0.70;0.10;;;28.40;99.90;;;;;;5014147;28;20467;-74
2022/06/17 12:38:23;;;;;;;0.70;0.10;;;28.40;99.90;;;;;;5015891;28;21033;-75
2022/06/17 12:40:55;;;;;;;0.70;0.10;;;28.40;99.90;;;;;;5025647;28;20450;-76
2022/06/17 12:43:33;;;;;;;0.70;0.10;;;28.40;99.90;;;;;;5025243;28;20462;-74
2022/06/17 12:46:04;;;;;;;0.70;0.20;;;28.50;99.90;;;;;;5032079;28;20525;-76
2022/06/17 12:48:43;;;;;;;1.00;0.50;;;28.60;99.90;;;;;;5019085;28;20444;-74
2022/06/17 12:54:13;;;;;;;0.70;0.10;;;28.70;99.90;;;;;;5025826;28;20479;-74
2022/06/17 12:56:49;;;;;;;0.70;0.10;;;28.70;99.90;;;;;;5017346;28;20460;-75
2022/06/17 12:59:41;;;;;;;0.70;0.10;;;28.90;99.90;;;;;;5032201;28;20485;-75
2022/06/17 13:02:15;;;;;;;0.70;0.30;;;28.90;99.90;;;;;;5030409;28;21004;-75
2022/06/17 13:05:08;;;;;;;0.70;0.27;;;28.80;99.90;;;;;;5019121;28;20472;-75
2022/06/17 13:07:54;;;;;;;0.70;0.10;;;28.90;99.90;;;;;;5028035;28;20884;-74
2022/06/17 13:10:43;;;;;;;0.70;0.20;;;28.90;99.90;;;;;;5019800;28;20440;-76
2022/06/17 13:13:37;;;;;;;0.70;0.20;;;29.00;99.90;;;;;;5013825;28;20440;-76
2022/06/17 13:16:10;;;;;;;0.70;0.10;;;29.00;99.90;;;;;;5024642;28;20471;-76
2022/06/17 13:18:47;;;;;;;0.70;0.10;;;29.00;99.90;;;;;;5015417;28;20994;-74
2022/06/17 13:21:23;;;;;;;0.70;0.20;;;29.20;99.90;;;;;;5024328;28;20962;-74
2022/06/17 13:23:59;;;;;;;0.70;0.10;;;29.30;99.90;;;;;;5018137;28;20531;-74
2022/06/17 13:26:36;;;;;;;0.70;0.10;;;29.20;99.90;;;;;;5016968;28;20554;-75
2022/06/17 13:29:13;;;;;;;0.70;0.20;;;29.20;99.90;;;;;;5012312;28;20432;-75
2022/06/17 13:31:48;;;;;;;0.70;0.20;;;29.20;99.90;;;;;;5026623;28;20514;-73
2022/06/17 13:34:22;;;;;;;0.70;0.10;;;29.30;99.90;;;;;;5023308;28;20566;-74
2022/06/17 13:37:00;;;;;;;0.80;0.27;;;29.40;99.90;;;;;;5023801;28;20478;-74
2022/06/17 13:39:33;;;;;;;0.70;0.20;;;29.40;99.90;;;;;;5019523;28;20494;-76
2022/06/17 13:42:03;;;;;;;0.70;0.20;;;29.10;99.90;;;;;;5020178;28;20438;-75